Time;durP1;ratioP1;P1;durP2;ratioP2;P2;SDS_P1;SDS_P2;PMS_P1;PMS_P2;Temp;Humidity;BMP_temperature;BMP_pressure;BME280_temperature;BME280_humidity;BME280_pressure;Samples;Min_cycle;Max_cycle;Signal;HPM_P1;HPM_P2
2021/06/30 00:01:22;;;;;;;;;;;;;;;;;;5051157;28;19956;-57
2021/06/30 00:03:48;;;;;;;;;;;;;;;;;;5051022;28;19964;-58
2021/06/30 00:06:13;;;;;;;;;;;;;;;;;;5051098;28;19916;-57
2021/06/30 00:08:38;;;;;;;;;;;;;;;;;;5050748;28;20007;-57
2021/06/30 00:11:04;;;;;;;;;;;;;;;;;;5051418;28;20366;-59
2021/06/30 00:13:29;;;;;;;;;;;;;;;;;;5054731;28;19916;-57
2021/06/30 00:15:54;;;;;;;;;;;;;;;;;;5054479;28;20369;-58
2021/06/30 00:18:21;;;;;;;;;;;;;;;;;;5054223;28;19962;-57
2021/06/30 00:20:47;;;;;;;;;;;;;;;;;;5054529;28;19913;-58
2021/06/30 00:23:12;;;;;;;;;;;;;;;;;;5054493;28;19979;-57
2021/06/30 00:25:37;;;;;;;;;;;;;;;;;;5054473;28;20254;-57
2021/06/30 00:28:02;;;;;;;;;;;;;;;;;;5054174;28;19913;-57
2021/06/30 00:30:28;;;;;;;;;;;;;;;;;;5054522;28;19913;-56
2021/06/30 00:32:53;;;;;;;;;;;;;;;;;;5054366;28;19913;-55
2021/06/30 00:35:18;;;;;;;;;;;;;;;;;;5054119;28;19923;-58
2021/06/30 00:37:43;;;;;;;;;;;;;;;;;;5053968;28;20005;-57
2021/06/30 00:40:10;;;;;;;;;;;;;;;;;;5054568;28;19919;-56
2021/06/30 00:42:35;;;;;;;;;;;;;;;;;;5054195;28;19913;-59
2021/06/30 00:45:01;;;;;;;;;;;;;;;;;;5054029;28;20383;-56
2021/06/30 00:47:26;;;;;;;;;;;;;;;;;;5053878;28;19921;-57
2021/06/30 00:49:52;;;;;;;;;;;;;;;;;;5053902;28;19958;-57
2021/06/30 00:52:17;;;;;;;;;;;;;;;;;;5053975;28;19912;-57
2021/06/30 00:54:42;;;;;;;;;;;;;;;;;;5053683;28;19920;-56
2021/06/30 00:57:09;;;;;;;;;;;;;;;;;;5053790;28;19966;-57
2021/06/30 00:59:35;;;;;;;;;;;;;;;;;;5053999;28;19919;-56
2021/06/30 01:02:00;;;;;;;;;;;;;;;;;;5055838;28;19938;-58
2021/06/30 01:04:25;;;;;;;;;;;;;;;;;;5053684;28;20423;-57
2021/06/30 01:06:50;;;;;;;;;;;;;;;;;;5053636;28;19912;-57
2021/06/30 01:09:16;;;;;;;;;;;;;;;;;;5055724;28;19912;-58
2021/06/30 01:11:41;;;;;;;;;;;;;;;;;;5051374;28;20002;-58
2021/06/30 01:14:06;;;;;;;;;;;;;;;;;;5053388;28;20302;-57
2021/06/30 01:16:31;;;;;;;;;;;;;;;;;;5052688;28;19938;-58
2021/06/30 01:18:57;;;;;;;;;;;;;;;;;;5053032;28;19920;-57
2021/06/30 01:21:22;;;;;;;;;;;;;;;;;;5052936;28;20008;-58
2021/06/30 01:23:47;;;;;;;;;;;;;;;;;;5053251;28;19912;-59
2021/06/30 01:26:12;;;;;;;;;;;;;;;;;;5053307;28;20384;-56
2021/06/30 01:28:38;;;;;;;;;;;;;;;;;;5053020;28;19919;-58
2021/06/30 01:31:04;;;;;;;;;;;;;;;;;;5053458;28;19913;-59
2021/06/30 01:33:30;;;;;;;;;;;;;;;;;;5053115;28;19923;-58
2021/06/30 01:35:55;;;;;;;;;;;;;;;;;;5053179;28;19920;-58
2021/06/30 01:38:22;;;;;;;;;;;;;;;;;;5052758;28;19966;-57
2021/06/30 01:40:48;;;;;;;;;;;;;;;;;;5053251;28;19913;-57
2021/06/30 01:43:13;;;;;;;;;;;;;;;;;;5053230;28;19913;-57
2021/06/30 01:45:38;;;;;;;;;;;;;;;;;;5052925;28;20386;-58
2021/06/30 01:48:03;;;;;;;;;;;;;;;;;;5052939;28;20290;-55
2021/06/30 01:50:29;;;;;;;;;;;;;;;;;;5052761;28;20337;-58
2021/06/30 01:52:54;;;;;;;;;;;;;;;;;;5052928;28;19913;-57
2021/06/30 01:55:19;;;;;;;;;;;;;;;;;;5052642;28;20220;-56
2021/06/30 01:57:46;;;;;;;;;;;;;;;;;;5052466;28;19920;-59
2021/06/30 02:00:12;;;;;;;;;;;;;;;;;;5052899;28;19912;-59
2021/06/30 02:02:38;;;;;;;;;;;;;;;;;;5052611;28;20379;-58
2021/06/30 02:05:06;;;;;;;;;;;;;;;;;;5052825;28;19924;-57
2021/06/30 02:07:31;;;;;;;;;;;;;;;;;;5052160;28;19912;-58
2021/06/30 02:09:57;;;;;;;;;;;;;;;;;;5052309;28;19913;-58
2021/06/30 02:12:22;;;;;;;;;;;;;;;;;;5052403;28;20374;-58
2021/06/30 02:14:47;;;;;;;;;;;;;;;;;;5052290;28;19916;-59
2021/06/30 02:17:12;;;;;;;;;;;;;;;;;;5052328;28;19958;-59
2021/06/30 02:19:37;;;;;;;;;;;;;;;;;;5052125;28;19916;-58
2021/06/30 02:22:03;;;;;;;;;;;;;;;;;;5052138;28;19920;-59
2021/06/30 02:24:28;;;;;;;;;;;;;;;;;;5052177;28;19913;-58
2021/06/30 02:26:53;;;;;;;;;;;;;;;;;;5052121;28;19913;-57
2021/06/30 02:29:18;;;;;;;;;;;;;;;;;;5051897;28;20069;-58
2021/06/30 02:31:43;;;;;;;;;;;;;;;;;;5052332;28;19913;-58
2021/06/30 02:34:09;;;;;;;;;;;;;;;;;;5051806;28;20132;-58
2021/06/30 02:36:34;;;;;;;;;;;;;;;;;;5052195;28;20432;-60
2021/06/30 02:38:59;;;;;;;;;;;;;;;;;;5051665;28;19927;-59
2021/06/30 02:41:24;;;;;;;;;;;;;;;;;;5051879;28;19922;-58
2021/06/30 02:43:50;;;;;;;;;;;;;;;;;;5051866;28;19970;-58
2021/06/30 02:46:15;;;;;;;;;;;;;;;;;;5051866;28;19912;-58
2021/06/30 02:48:40;;;;;;;;;;;;;;;;;;5051630;28;19952;-57
2021/06/30 02:51:07;;;;;;;;;;;;;;;;;;5051710;28;19923;-55
2021/06/30 02:53:32;;;;;;;;;;;;;;;;;;5051629;28;20011;-56
2021/06/30 02:56:00;;;;;;;;;;;;;;;;;;5052037;28;19913;-57
2021/06/30 02:58:25;;;;;;;;;;;;;;;;;;5051546;28;19958;-57
2021/06/30 03:00:50;;;;;;;;;;;;;;;;;;5050939;28;20317;-58
2021/06/30 03:03:15;;;;;;;;;;;;;;;;;;5050473;28;19917;-56
2021/06/30 03:05:40;;;;;;;;;;;;;;;;;;5051537;28;19950;-56
2021/06/30 03:08:06;;;;;;;;;;;;;;;;;;5054092;28;19917;-57
2021/06/30 03:10:31;;;;;;;;;;;;;;;;;;5051419;28;20444;-57
2021/06/30 03:12:56;;;;;;;;;;;;;;;;;;5054165;28;19913;-57
2021/06/30 03:15:21;;;;;;;;;;;;;;;;;;5051391;28;19917;-57
2021/06/30 03:17:46;;;;;;;;;;;;;;;;;;5051258;28;19913;-57
2021/06/30 03:20:13;;;;;;;;;;;;;;;;;;5051966;28;19996;-58
2021/06/30 03:22:39;;;;;;;;;;;;;;;;;;5051343;28;20139;-59
2021/06/30 03:25:05;;;;;;;;;;;;;;;;;;5051672;28;19912;-59
2021/06/30 03:27:30;;;;;;;;;;;;;;;;;;5051280;28;19923;-59
2021/06/30 03:29:55;;;;;;;;;;;;;;;;;;5051445;28;20011;-56
2021/06/30 03:32:20;;;;;;;;;;;;;;;;;;5051390;28;20345;-59
2021/06/30 03:34:45;;;;;;;;;;;;;;;;;;5051333;28;19917;-57
2021/06/30 03:37:11;;;;;;;;;;;;;;;;;;5051190;28;19952;-57
2021/06/30 03:39:37;;;;;;;;;;;;;;;;;;5051149;28;20332;-57
2021/06/30 03:42:02;;;;;;;;;;;;;;;;;;5051163;28;19935;-57
2021/06/30 03:44:27;;;;;;;;;;;;;;;;;;5051482;28;19913;-59
2021/06/30 03:46:52;;;;;;;;;;;;;;;;;;5053291;28;19955;-59
2021/06/30 03:49:18;;;;;;;;;;;;;;;;;;5054892;28;19913;-57
2021/06/30 03:51:43;;;;;;;;;;;;;;;;;;5054884;28;19913;-57
2021/06/30 03:54:09;;;;;;;;;;;;;;;;;;5055188;28;19947;-57
2021/06/30 03:56:34;;;;;;;;;;;;;;;;;;5055001;28;20338;-56
2021/06/30 03:59:00;;;;;;;;;;;;;;;;;;5054733;28;20151;-57
2021/06/30 04:01:25;;;;;;;;;;;;;;;;;;5055127;28;19970;-58
2021/06/30 04:03:59;;;;;;;;;;;;;;;;;;5054786;28;19917;-55
2021/06/30 04:06:25;;;;;;;;;;;;;;;;;;5054966;28;19913;-57
2021/06/30 04:08:50;;;;;;;;;;;;;;;;;;5054496;28;19942;-57
2021/06/30 04:11:16;;;;;;;;;;;;;;;;;;5054744;28;19920;-57
2021/06/30 04:13:41;;;;;;;;;;;;;;;;;;5054585;28;19920;-57
2021/06/30 04:16:06;;;;;;;;;;;;;;;;;;5054559;28;19913;-58
2021/06/30 04:18:32;;;;;;;;;;;;;;;;;;5054304;28;19920;-58
2021/06/30 04:20:57;;;;;;;;;;;;;;;;;;5054896;28;20290;-56
2021/06/30 04:23:22;;;;;;;;;;;;;;;;;;5054504;28;19913;-59
2021/06/30 04:25:48;;;;;;;;;;;;;;;;;;5054795;28;19920;-58
2021/06/30 04:28:13;;;;;;;;;;;;;;;;;;5054274;28;20409;-58
2021/06/30 04:30:39;;;;;;;;;;;;;;;;;;5054336;28;20286;-57
2021/06/30 04:33:04;;;;;;;;;;;;;;;;;;5054262;28;20298;-58
2021/06/30 04:35:29;;;;;;;;;;;;;;;;;;5054051;28;20279;-58
2021/06/30 04:37:54;;;;;;;;;;;;;;;;;;5054467;28;19913;-58
2021/06/30 04:40:19;;;;;;;;;;;;;;;;;;5054173;28;19939;-57
2021/06/30 04:42:44;;;;;;;;;;;;;;;;;;5054139;28;19913;-58
2021/06/30 04:45:10;;;;;;;;;;;;;;;;;;5053964;28;19924;-57
2021/06/30 04:47:35;;;;;;;;;;;;;;;;;;5053891;28;19912;-54
2021/06/30 04:50:00;;;;;;;;;;;;;;;;;;5053765;28;19920;-57
2021/06/30 04:52:25;;;;;;;;;;;;;;;;;;5053955;28;19912;-57
2021/06/30 04:54:51;;;;;;;;;;;;;;;;;;5053843;28;19971;-55
2021/06/30 04:57:16;;;;;;;;;;;;;;;;;;5053534;28;19920;-57
2021/06/30 04:59:41;;;;;;;;;;;;;;;;;;5053638;28;20003;-57
2021/06/30 05:02:06;;;;;;;;;;;;;;;;;;5054017;28;19920;-58
2021/06/30 05:04:31;;;;;;;;;;;;;;;;;;5053518;28;19999;-58
2021/06/30 05:06:57;;;;;;;;;;;;;;;;;;5056222;28;20340;-57
2021/06/30 05:09:22;;;;;;;;;;;;;;;;;;5053364;28;20341;-57
2021/06/30 05:11:47;;;;;;;;;;;;;;;;;;5056166;28;19913;-57
2021/06/30 05:14:12;;;;;;;;;;;;;;;;;;5053485;28;19917;-58
2021/06/30 05:16:38;;;;;;;;;;;;;;;;;;5053458;28;19912;-57
2021/06/30 05:19:04;;;;;;;;;;;;;;;;;;5053393;28;19999;-58
2021/06/30 05:21:29;;;;;;;;;;;;;;;;;;5053565;28;19991;-58
2021/06/30 05:23:54;;;;;;;;;;;;;;;;;;5053300;28;20382;-58
2021/06/30 05:26:19;;;;;;;;;;;;;;;;;;5053303;28;19923;-57
2021/06/30 05:28:45;;;;;;;;;;;;;;;;;;5053061;28;19920;-59
2021/06/30 05:31:10;;;;;;;;;;;;;;;;;;5053253;28;19916;-57
2021/06/30 05:33:35;;;;;;;;;;;;;;;;;;5053132;28;20350;-59
2021/06/30 05:36:00;;;;;;;;;;;;;;;;;;5053138;28;19913;-57
2021/06/30 05:38:26;;;;;;;;;;;;;;;;;;5052844;28;19919;-58
2021/06/30 05:40:51;;;;;;;;;;;;;;;;;;5053138;28;20007;-59
2021/06/30 05:43:16;;;;;;;;;;;;;;;;;;5053011;28;19919;-57
2021/06/30 05:45:41;;;;;;;;;;;;;;;;;;5052965;28;19912;-59
2021/06/30 05:48:07;;;;;;;;;;;;;;;;;;5052724;28;19955;-56
2021/06/30 05:50:32;;;;;;;;;;;;;;;;;;5052554;28;19913;-58
2021/06/30 05:52:58;;;;;;;;;;;;;;;;;;5052952;28;19966;-57
2021/06/30 05:55:23;;;;;;;;;;;;;;;;;;5052735;28;19917;-55
2021/06/30 05:57:48;;;;;;;;;;;;;;;;;;5052822;28;20207;-58
2021/06/30 06:00:15;;;;;;;;;;;;;;;;;;5052552;28;20412;-58
2021/06/30 06:02:40;;;;;;;;;;;;;;;;;;5052594;28;19924;-58
2021/06/30 06:05:06;;;;;;;;;;;;;;;;;;5052298;28;20294;-59
2021/06/30 06:07:31;;;;;;;;;;;;;;;;;;5052287;28;19920;-58
2021/06/30 06:09:58;;;;;;;;;;;;;;;;;;5051972;28;19948;-60
2021/06/30 06:12:23;;;;;;;;;;;;;;;;;;5052751;28;19912;-60
2021/06/30 06:14:48;;;;;;;;;;;;;;;;;;5052238;28;20441;-57
2021/06/30 06:17:14;;;;;;;;;;;;;;;;;;5052328;28;19967;-58
2021/06/30 06:19:39;;;;;;;;;;;;;;;;;;5052072;28;19960;-58
2021/06/30 06:22:07;;;;;;;;;;;;;;;;;;5052476;28;19939;-59
2021/06/30 06:24:32;;;;;;;;;;;;;;;;;;5052211;28;19959;-57
2021/06/30 06:26:58;;;;;;;;;;;;;;;;;;5052157;28;19913;-58
2021/06/30 06:29:24;;;;;;;;;;;;;;;;;;5051996;28;20150;-57
2021/06/30 06:31:49;;;;;;;;;;;;;;;;;;5052136;28;19913;-57
2021/06/30 06:34:19;;;;;;;;;;;;;;;;;;5052091;28;19924;-57
2021/06/30 06:36:45;;;;;;;;;;;;;;;;;;5052118;28;19944;-57
2021/06/30 06:39:10;;;;;;;;;;;;;;;;;;5051727;28;20391;-59
2021/06/30 06:41:35;;;;;;;;;;;;;;;;;;5052123;28;19912;-57
2021/06/30 06:44:02;;;;;;;;;;;;;;;;;;5051962;28;19973;-58
2021/06/30 06:46:27;;;;;;;;;;;;;;;;;;5051858;28;19912;-57
2021/06/30 06:48:52;;;;;;;;;;;;;;;;;;5051628;28;20519;-59
2021/06/30 06:51:17;;;;;;;;;;;;;;;;;;5051888;28;19913;-57
2021/06/30 06:53:42;;;;;;;;;;;;;;;;;;5051698;28;19913;-57
2021/06/30 06:56:11;;;;;;;;;;;;;;;;;;5051938;28;20482;-57
2021/06/30 06:58:36;;;;;;;;;;;;;;;;;;5051549;28;19974;-58
2021/06/30 07:01:02;;;;;;;;;;;;;;;;;;5051713;28;20013;-58
2021/06/30 07:03:27;;;;;;;;;;;;;;;;;;5054085;28;19923;-57
2021/06/30 07:05:52;;;;;;;;;;;;;;;;;;5051680;28;19912;-57
2021/06/30 07:08:17;;;;;;;;;;;;;;;;;;5050927;28;19920;-57
2021/06/30 07:10:42;;;;;;;;;;;;;;;;;;5046872;28;19945;-57
2021/06/30 07:13:08;;;;;;;;;;;;;;;;;;5033115;28;19913;-56
2021/06/30 07:15:33;;;;;;;;;;;;;;;;;;5055044;28;19960;-62
2021/06/30 07:17:58;;;;;;;;;;;;;;;;;;5049866;28;19916;-61
2021/06/30 07:20:23;;;;;;;;;;;;;;;;;;5054520;28;19925;-61
2021/06/30 07:22:48;;;;;;;;;;;;;;;;;;5049124;28;19917;-61
2021/06/30 07:25:16;;;;;;;;;;;;;;;;;;5054729;28;19966;-62
2021/06/30 07:27:41;;;;;;;;;;;;;;;;;;5055117;28;19917;-61
2021/06/30 07:30:07;;;;;;;;;;;;;;;;;;5054730;28;19917;-61
2021/06/30 07:32:32;;;;;;;;;;;;;;;;;;5054738;28;20295;-59
2021/06/30 07:34:57;;;;;;;;;;;;;;;;;;5055385;28;19917;-61
2021/06/30 07:37:23;;;;;;;;;;;;;;;;;;5052690;28;19924;-58
2021/06/30 07:39:48;;;;;;;;;;;;;;;;;;5049329;28;20004;-61
2021/06/30 07:42:13;;;;;;;;;;;;;;;;;;5035350;28;19913;-60
2021/06/30 07:44:39;;;;;;;;;;;;;;;;;;5052547;28;20074;-60
2021/06/30 07:47:04;;;;;;;;;;;;;;;;;;5054947;28;19923;-60
2021/06/30 07:49:30;;;;;;;;;;;;;;;;;;5054675;28;20007;-61
2021/06/30 07:51:55;;;;;;;;;;;;;;;;;;5054745;28;20318;-61
2021/06/30 07:54:20;;;;;;;;;;;;;;;;;;5053710;28;19948;-59
2021/06/30 07:56:45;;;;;;;;;;;;;;;;;;5054776;28;19943;-59
2021/06/30 07:59:12;;;;;;;;;;;;;;;;;;5054433;28;20000;-61
2021/06/30 08:01:38;;;;;;;;;;;;;;;;;;5037207;28;19979;-61
2021/06/30 08:04:05;;;;;;;;;;;;;;;;;;5048819;28;20454;-59
2021/06/30 08:06:30;;;;;;;;;;;;;;;;;;5055035;28;19921;-61
2021/06/30 08:08:56;;;;;;;;;;;;;;;;;;5054895;28;20382;-61
2021/06/30 08:11:24;;;;;;;;;;;;;;;;;;5039724;28;19967;-60
2021/06/30 08:13:52;;;;;;;;;;;;;;;;;;5065850;28;20329;-60
2021/06/30 08:16:18;;;;;;;;;;;;;;;;;;5054601;28;19965;-59
2021/06/30 08:18:43;;;;;;;;;;;;;;;;;;5054343;28;20409;-60
2021/06/30 08:21:09;;;;;;;;;;;;;;;;;;5054724;28;19913;-61
2021/06/30 08:23:34;;;;;;;;;;;;;;;;;;5060195;28;20383;-62
2021/06/30 08:25:59;;;;;;;;;;;;;;;;;;5053354;28;19923;-62
2021/06/30 08:28:26;;;;;;;;;;;;;;;;;;5054272;28;20306;-60
2021/06/30 08:30:51;;;;;;;;;;;;;;;;;;5040654;28;19917;-61
2021/06/30 08:33:17;;;;;;;;;;;;;;;;;;5042882;28;19917;-53
2021/06/30 08:35:42;;;;;;;;;;;;;;;;;;5054540;28;20423;-49
2021/06/30 08:38:07;;;;;;;;;;;;;;;;;;5053250;28;20390;-50
2021/06/30 08:40:33;;;;;;;;;;;;;;;;;;5054258;28;19923;-52
2021/06/30 08:42:58;;;;;;;;;;;;;;;;;;5050650;28;19913;-56
2021/06/30 08:45:23;;;;;;;;;;;;;;;;;;5045302;28;19964;-53
2021/06/30 08:47:52;;;;;;;;;;;;;;;;;;5053691;28;19935;-53
2021/06/30 08:50:17;;;;;;;;;;;;;;;;;;5053234;28;19932;-52
2021/06/30 08:52:45;;;;;;;;;;;;;;;;;;5054038;28;19912;-52
2021/06/30 08:55:12;;;;;;;;;;;;;;;;;;5053515;28;19925;-49
2021/06/30 08:57:38;;;;;;;;;;;;;;;;;;5053133;28;20417;-53
2021/06/30 09:00:05;;;;;;;;;;;;;;;;;;5053716;28;20455;-51
2021/06/30 09:02:30;;;;;;;;;;;;;;;;;;5053651;28;19958;-53
2021/06/30 09:05:11;;;;;;;;;;;;;;;;;;5052677;28;19967;-53
2021/06/30 09:07:36;;;;;;;;;;;;;;;;;;5048957;28;20539;-52
2021/06/30 09:10:02;;;;;;;;;;;;;;;;;;5042273;28;20007;-54
2021/06/30 09:12:37;;;;;;;;;;;;;;;;;;5049239;28;19920;-53
2021/06/30 09:15:18;;;;;;;;;;;;;;;;;;5065247;28;19925;-52
2021/06/30 09:17:45;;;;;;;;;;;;;;;;;;5052958;28;20290;-52
2021/06/30 09:20:11;;;;;;;;;;;;;;;;;;5048503;28;19916;-53
2021/06/30 09:22:43;;;;;;;;;;;;;;;;;;5051449;28;19923;-53
2021/06/30 09:25:23;;;;;;;;;;;;;;;;;;5053196;28;19920;-52
2021/06/30 09:27:48;;;;;;;;;;;;;;;;;;5052467;28;19936;-53
2021/06/30 09:30:13;;;;;;;;;;;;;;;;;;5051151;28;19923;-53
2021/06/30 09:32:58;;;;;;;;;;;;;;;;;;5048642;28;19917;-52
2021/06/30 09:35:27;;;;;;;;;;;;;;;;;;5043569;28;20268;-54
2021/06/30 09:37:53;;;;;;;;;;;;;;;;;;5052752;28;20357;-53
2021/06/30 09:40:18;;;;;;;;;;;;;;;;;;5036450;28;19963;-51
2021/06/30 09:42:44;;;;;;;;;;;;;;;;;;5035332;28;19924;-54
2021/06/30 09:45:10;;;;;;;;;;;;;;;;;;5051504;28;19916;-54
2021/06/30 09:47:46;;;;;;;;;;;;;;;;;;5051000;28;19924;-53
2021/06/30 09:50:11;;;;;;;;;;;;;;;;;;5047165;28;19928;-53
2021/06/30 09:52:38;;;;;;;;;;;;;;;;;;5051201;28;19917;-50
2021/06/30 09:55:21;;;;;;;;;;;;;;;;;;5051302;28;19921;-53
2021/06/30 09:57:46;;;;;;;;;;;;;;;;;;5050944;28;19913;-53
2021/06/30 10:00:12;;;;;;;;;;;;;;;;;;5050886;28;19959;-50
2021/06/30 10:02:40;;;;;;;;;;;;;;;;;;5049797;28;19913;-52
2021/06/30 10:05:07;;;;;;;;;;;;;;;;;;5050725;28;19929;-52
2021/06/30 10:07:32;;;;;;;;;;;;;;;;;;5051649;28;20295;-52
2021/06/30 10:09:59;;;;;;;;;;;;;;;;;;5052504;28;19913;-50
2021/06/30 10:12:25;;;;;;;;;;;;;;;;;;5052646;28;19920;-50
2021/06/30 10:14:51;;;;;;;;;;;;;;;;;;5034444;28;19975;-52
2021/06/30 10:17:17;;;;;;;;;;;;;;;;;;5052658;28;19917;-53
2021/06/30 10:19:43;;;;;;;;;;;;;;;;;;5052145;28;19920;-53
2021/06/30 10:22:10;;;;;;;;;;;;;;;;;;5052301;28;19920;-52
2021/06/30 10:24:36;;;;;;;;;;;;;;;;;;5052342;28;19917;-51
2021/06/30 10:27:02;;;;;;;;;;;;;;;;;;5052222;28;20373;-52
2021/06/30 10:29:28;;;;;;;;;;;;;;;;;;5051831;28;20008;-51
2021/06/30 10:32:02;;;;;;;;;;;;;;;;;;5052319;28;19913;-52
2021/06/30 10:34:41;;;;;;;;;;;;;;;;;;5052329;28;20205;-49
2021/06/30 10:37:26;;;;;;;;;;;;;;;;;;5052103;28;20517;-52
2021/06/30 10:39:52;;;;;;;;;;;;;;;;;;5052125;28;19956;-52
2021/06/30 10:42:19;;;;;;;;;;;;;;;;;;5052123;28;19919;-52
2021/06/30 10:44:45;;;;;;;;;;;;;;;;;;5052085;28;20227;-53
2021/06/30 10:47:27;;;;;;;;;;;;;;;;;;5052277;28;20380;-53
2021/06/30 10:50:12;;;;;;;;;;;;;;;;;;5051983;28;20007;-50
2021/06/30 10:52:37;;;;;;;;;;;;;;;;;;5035372;28;19917;-53
2021/06/30 10:55:03;;;;;;;;;;;;;;;;;;5033672;28;20377;-52
2021/06/30 10:57:31;;;;;;;;;;;;;;;;;;5040227;28;20008;-53
2021/06/30 11:00:00;;;;;;;;;;;;;;;;;;5034570;28;19925;-53
2021/06/30 11:02:27;;;;;;;;;;;;;;;;;;5037272;28;19925;-49
2021/06/30 11:04:52;;;;;;;;;;;;;;;;;;5044969;28;19935;-53
2021/06/30 11:07:35;;;;;;;;;;;;;;;;;;5037508;28;21356;-52
2021/06/30 11:10:21;;;;;;;;;;;;;;;;;;5053169;28;19913;-52
2021/06/30 11:12:54;;;;;;;;;;;;;;;;;;5051840;28;19913;-52
2021/06/30 11:15:37;;;;;;;;;;;;;;;;;;5051407;28;19924;-51
2021/06/30 11:18:03;;;;;;;;;;;;;;;;;;5051575;28;19913;-53
2021/06/30 11:20:45;;;;;;;;;;;;;;;;;;5051430;28;19958;-51
2021/06/30 11:23:18;;;;;;;;;;;;;;;;;;5051426;28;19966;-51
2021/06/30 11:25:43;;;;;;;;;;;;;;;;;;5051882;28;19913;-52
2021/06/30 11:28:27;;;;;;;;;;;;;;;;;;5051518;28;19958;-53
2021/06/30 11:30:52;;;;;;;;;;;;;;;;;;5051395;28;19913;-49
2021/06/30 11:33:17;;;;;;;;;;;;;;;;;;5047964;28;19924;-50
2021/06/30 11:35:45;;;;;;;;;;;;;;;;;;5034925;28;19928;-55
2021/06/30 11:38:15;;;;;;;;;;;;;;;;;;5049010;28;20571;-52
2021/06/30 11:40:58;;;;;;;;;;;;;;;;;;5049022;28;19923;-53
2021/06/30 11:43:32;;;;;;;;;;;;;;;;;;5036844;28;19917;-52
2021/06/30 11:45:59;;;;;;;;;;;;;;;;;;5049714;28;19924;-51
2021/06/30 11:48:25;;;;;;;;;;;;;;;;;;5046176;28;20394;-48
2021/06/30 11:50:50;;;;;;;;;;;;;;;;;;5032440;28;20004;-51
2021/06/30 11:53:15;;;;;;;;;;;;;;;;;;5050892;28;19956;-50
2021/06/30 11:55:41;;;;;;;;;;;;;;;;;;5048949;28;20405;-51
2021/06/30 11:58:06;;;;;;;;;;;;;;;;;;5044101;28;19920;-50
2021/06/30 12:00:34;;;;;;;;;;;;;;;;;;5043691;28;20012;-49
2021/06/30 12:03:00;;;;;;;;;;;;;;;;;;5049504;28;20433;-50
2021/06/30 12:05:27;;;;;;;;;;;;;;;;;;5049342;28;19917;-51
2021/06/30 12:07:54;;;;;;;;;;;;;;;;;;5046818;28;19993;-47
2021/06/30 12:10:20;;;;;;;;;;;;;;;;;;5054181;28;20011;-51
2021/06/30 12:12:46;;;;;;;;;;;;;;;;;;5050138;28;20434;-48
2021/06/30 12:15:12;;;;;;;;;;;;;;;;;;5045709;28;19953;-50
2021/06/30 12:17:37;;;;;;;;;;;;;;;;;;5052405;28;19960;-47
2021/06/30 12:20:05;;;;;;;;;;;;;;;;;;5053589;28;19913;-47
2021/06/30 12:22:32;;;;;;;;;;;;;;;;;;5053626;28;19971;-47
2021/06/30 12:25:03;;;;;;;;;;;;;;;;;;5054151;28;19912;-48
2021/06/30 12:27:33;;;;;;;;;;;;;;;;;;5052957;28;19971;-47
2021/06/30 12:30:01;;;;;;;;;;;;;;;;;;5053536;28;20286;-47
2021/06/30 12:32:26;;;;;;;;;;;;;;;;;;5054033;28;19923;-48
2021/06/30 12:34:56;;;;;;;;;;;;;;;;;;5056399;28;20008;-48
2021/06/30 12:37:22;;;;;;;;;;;;;;;;;;5049445;28;19948;-48
2021/06/30 12:39:51;;;;;;;;;;;;;;;;;;5050222;28;20019;-48
2021/06/30 12:42:17;;;;;;;;;;;;;;;;;;5045890;28;19916;-47
2021/06/30 12:44:58;;;;;;;;;;;;;;;;;;5053022;28;19916;-50
2021/06/30 12:47:24;;;;;;;;;;;;;;;;;;5053472;28;19999;-47
2021/06/30 12:50:15;;;;;;;;;;;;;;;;;;5051245;28;20014;-50
2021/06/30 12:52:41;;;;;;;;;;;;;;;;;;5044672;28;20652;-48
2021/06/30 12:55:08;;;;;;;;;;;;;;;;;;5039847;28;19990;-49
2021/06/30 12:57:52;;;;;;;;;;;;;;;;;;5045978;28;19924;-49
2021/06/30 13:00:19;;;;;;;;;;;;;;;;;;5038534;28;19921;-48
2021/06/30 13:02:45;;;;;;;;;;;;;;;;;;5049865;28;19920;-49
2021/06/30 13:05:24;;;;;;;;;;;;;;;;;;5051577;28;20386;-47
2021/06/30 13:07:49;;;;;;;;;;;;;;;;;;5052779;28;19948;-50
2021/06/30 13:10:15;;;;;;;;;;;;;;;;;;5047006;28;19964;-46
2021/06/30 13:12:40;;;;;;;;;;;;;;;;;;5051773;28;20427;-50
2021/06/30 13:15:19;;;;;;;;;;;;;;;;;;5040925;28;19983;-49
2021/06/30 13:17:45;;;;;;;;;;;;;;;;;;5041456;28;19967;-48
2021/06/30 13:20:13;;;;;;;;;;;;;;;;;;5049597;28;19964;-47
2021/06/30 13:22:42;;;;;;;;;;;;;;;;;;5050090;28;19920;-47
2021/06/30 13:25:12;;;;;;;;;;;;;;;;;;5052190;28;19997;-47
2021/06/30 13:35:44;;;;;;;;;;;;;;;;;;5033808;28;19928;-48
2021/06/30 13:38:29;;;;;;;;;;;;;;;;;;5035513;28;19916;-48
2021/06/30 13:40:55;;;;;;;;;;;;;;;;;;5052246;28;19913;-47
2021/06/30 13:43:21;;;;;;;;;;;;;;;;;;5043689;28;20191;-48
2021/06/30 13:45:48;;;;;;;;;;;;;;;;;;5034586;28;20276;-50
2021/06/30 13:48:14;;;;;;;;;;;;;;;;;;5031894;28;19960;-47
2021/06/30 13:50:43;;;;;;;;;;;;;;;;;;5039180;28;19916;-49
2021/06/30 13:53:08;;;;;;;;;;;;;;;;;;5032202;28;19913;-49
2021/06/30 13:55:34;;;;;;;;;;;;;;;;;;5021646;28;19936;-48
2021/06/30 13:58:00;;;;;;;;;;;;;;;;;;5050775;28;20033;-47
2021/06/30 14:00:25;;;;;;;;;;;;;;;;;;5040310;28;20383;-49
2021/06/30 14:02:50;;;;;;;;;;;;;;;;;;5045580;28;19936;-47
2021/06/30 14:05:16;;;;;;;;;;;;;;;;;;5051737;28;19916;-47
2021/06/30 14:07:41;;;;;;;;;;;;;;;;;;5051290;28;19913;-48
2021/06/30 14:10:07;;;;;;;;;;;;;;;;;;5034915;28;19935;-48
2021/06/30 14:12:32;;;;;;;;;;;;;;;;;;5048494;28;19979;-48
2021/06/30 14:14:57;;;;;;;;;;;;;;;;;;5037203;28;19921;-47
2021/06/30 14:17:23;;;;;;;;;;;;;;;;;;5050371;28;19924;-48
2021/06/30 14:19:48;;;;;;;;;;;;;;;;;;5051457;28;19913;-47
2021/06/30 14:22:21;;;;;;;;;;;;;;;;;;5048551;28;19924;-47
2021/06/30 14:24:46;;;;;;;;;;;;;;;;;;5041994;28;19916;-47
2021/06/30 14:27:11;;;;;;;;;;;;;;;;;;5048934;28;19924;-47
2021/06/30 14:29:36;;;;;;;;;;;;;;;;;;5042237;28;19917;-47
2021/06/30 14:32:01;;;;;;;;;;;;;;;;;;5043196;28;19998;-45
2021/06/30 14:34:27;;;;;;;;;;;;;;;;;;5044826;28;20382;-48
2021/06/30 14:36:52;;;;;;;;;;;;;;;;;;5049647;28;19936;-45
2021/06/30 14:39:17;;;;;;;;;;;;;;;;;;5049348;28;19917;-51
2021/06/30 14:41:42;;;;;;;;;;;;;;;;;;5042444;28;19923;-47
2021/06/30 14:44:07;;;;;;;;;;;;;;;;;;5046732;28;19916;-47
2021/06/30 14:46:33;;;;;;;;;;;;;;;;;;5043535;28;19917;-47
2021/06/30 14:48:58;;;;;;;;;;;;;;;;;;5047251;28;20382;-48
2021/06/30 14:51:23;;;;;;;;;;;;;;;;;;5046503;28;20378;-50
2021/06/30 14:53:48;;;;;;;;;;;;;;;;;;5046802;28;19924;-47
2021/06/30 14:56:13;;;;;;;;;;;;;;;;;;5046051;28;19921;-50
2021/06/30 14:58:39;;;;;;;;;;;;;;;;;;5041422;28;19935;-47
2021/06/30 15:01:04;;;;;;;;;;;;;;;;;;5047090;28;19948;-48
2021/06/30 15:03:29;;;;;;;;;;;;;;;;;;5046695;28;19921;-50
2021/06/30 15:05:55;;;;;;;;;;;;;;;;;;5048086;28;19924;-47
2021/06/30 15:08:20;;;;;;;;;;;;;;;;;;5050316;28;20425;-49
2021/06/30 15:10:45;;;;;;;;;;;;;;;;;;5050967;28;19913;-50
2021/06/30 15:13:10;;;;;;;;;;;;;;;;;;5035414;28;19947;-47
2021/06/30 15:15:36;;;;;;;;;;;;;;;;;;5034021;28;19928;-49
2021/06/30 15:18:01;;;;;;;;;;;;;;;;;;5051121;28;20538;-46
2021/06/30 15:20:26;;;;;;;;;;;;;;;;;;5050656;28;19913;-49
2021/06/30 15:22:51;;;;;;;;;;;;;;;;;;5046985;28;19938;-47
2021/06/30 15:25:17;;;;;;;;;;;;;;;;;;5041546;28;19917;-47
2021/06/30 15:27:43;;;;;;;;;;;;;;;;;;5043875;28;19978;-50
2021/06/30 15:30:10;;;;;;;;;;;;;;;;;;5045054;28;19917;-49
2021/06/30 15:32:35;;;;;;;;;;;;;;;;;;5041403;28;20011;-47
2021/06/30 15:35:00;;;;;;;;;;;;;;;;;;5055877;28;20023;-49
2021/06/30 15:37:28;;;;;;;;;;;;;;;;;;5041098;28;19917;-48
2021/06/30 15:39:55;;;;;;;;;;;;;;;;;;5040849;28;19917;-48
2021/06/30 15:42:21;;;;;;;;;;;;;;;;;;5034993;28;19968;-48
2021/06/30 15:44:46;;;;;;;;;;;;;;;;;;5046805;28;20355;-47
2021/06/30 15:47:11;;;;;;;;;;;;;;;;;;5038514;28;19970;-48
2021/06/30 15:49:37;;;;;;;;;;;;;;;;;;5047208;28;19917;-49
2021/06/30 15:52:02;;;;;;;;;;;;;;;;;;5051951;28;20715;-47
2021/06/30 15:54:27;;;;;;;;;;;;;;;;;;5047913;28;20363;-47
2021/06/30 15:56:53;;;;;;;;;;;;;;;;;;5053357;28;19995;-49
2021/06/30 15:59:19;;;;;;;;;;;;;;;;;;5033826;28;19913;-49
2021/06/30 16:01:46;;;;;;;;;;;;;;;;;;5040489;28;19917;-48
2021/06/30 16:04:11;;;;;;;;;;;;;;;;;;5052057;28;19920;-50
2021/06/30 16:06:37;;;;;;;;;;;;;;;;;;5036844;28;19913;-48
2021/06/30 16:09:04;;;;;;;;;;;;;;;;;;5038372;28;19925;-48
2021/06/30 16:11:29;;;;;;;;;;;;;;;;;;5042924;28;19924;-49
2021/06/30 16:13:54;;;;;;;;;;;;;;;;;;5053705;28;20355;-48
2021/06/30 16:16:20;;;;;;;;;;;;;;;;;;5053091;28;20294;-46
2021/06/30 16:18:45;;;;;;;;;;;;;;;;;;5049049;28;19917;-48
2021/06/30 16:21:10;;;;;;;;;;;;;;;;;;5043798;28;19928;-47
2021/06/30 16:23:36;;;;;;;;;;;;;;;;;;5039599;28;20459;-49
2021/06/30 16:26:02;;;;;;;;;;;;;;;;;;5053708;28;19913;-48
2021/06/30 16:28:27;;;;;;;;;;;;;;;;;;5051916;28;20016;-47
2021/06/30 16:30:53;;;;;;;;;;;;;;;;;;5037316;28;19949;-48
2021/06/30 16:33:18;;;;;;;;;;;;;;;;;;5044325;28;19927;-49
2021/06/30 16:35:44;;;;;;;;;;;;;;;;;;5048641;28;20004;-47
2021/06/30 16:38:09;;;;;;;;;;;;;;;;;;5033135;28;19913;-50
2021/06/30 16:40:35;;;;;;;;;;;;;;;;;;5046854;28;19924;-47
2021/06/30 16:43:00;;;;;;;;;;;;;;;;;;5036272;28;19982;-50
2021/06/30 16:45:25;;;;;;;;;;;;;;;;;;5053486;28;19916;-47
2021/06/30 16:47:51;;;;;;;;;;;;;;;;;;5044319;28;19921;-47
2021/06/30 16:50:16;;;;;;;;;;;;;;;;;;5042571;28;20302;-51